Time;durP1;ratioP1;P1;durP2;ratioP2;P2;SDS_P1;SDS_P2;PMS_P1;PMS_P2;Temp;Humidity;BMP_temperature;BMP_pressure;BME280_temperature;BME280_humidity;BME280_pressure;Samples;Min_cycle;Max_cycle;Signal;HPM_P1;HPM_P2
2022/08/26 00:01:24;;;;;;;4.88;3.92;;;21.20;97.00;;;;;;5007298;28;20030;-74
2022/08/26 00:03:50;;;;;;;7.78;4.60;;;21.20;97.00;;;;;;5007085;28;20093;-76
2022/08/26 00:06:15;;;;;;;5.18;4.18;;;21.20;97.10;;;;;;5009723;28;20113;-76
2022/08/26 00:08:42;;;;;;;5.40;4.30;;;21.20;97.20;;;;;;5003559;28;20033;-77
2022/08/26 00:11:08;;;;;;;6.32;3.78;;;21.20;97.20;;;;;;5006919;28;20028;-77
2022/08/26 00:13:34;;;;;;;5.05;4.40;;;21.10;97.30;;;;;;5005984;28;20104;-77
2022/08/26 00:16:01;;;;;;;5.53;4.05;;;21.10;97.30;;;;;;5007784;28;20030;-77
2022/08/26 00:18:27;;;;;;;4.95;3.92;;;21.10;97.40;;;;;;5008796;28;20057;-75
2022/08/26 00:20:53;;;;;;;5.85;4.30;;;21.10;97.50;;;;;;5009295;28;20069;-76
2022/08/26 00:23:19;;;;;;;4.97;4.10;;;21.00;97.60;;;;;;5007366;28;20026;-76
2022/08/26 00:25:45;;;;;;;9.80;4.10;;;21.00;97.70;;;;;;5010213;28;20053;-76
2022/08/26 00:28:12;;;;;;;5.57;4.28;;;20.90;97.80;;;;;;5012944;28;20064;-76
2022/08/26 00:30:38;;;;;;;7.63;4.43;;;20.90;97.90;;;;;;5011966;28;20021;-76
2022/08/26 00:33:07;;;;;;;5.38;3.80;;;20.90;98.00;;;;;;5012279;28;20024;-76
2022/08/26 00:35:33;;;;;;;5.57;4.05;;;20.90;98.10;;;;;;5013305;28;20112;-74
2022/08/26 00:38:01;;;;;;;5.30;4.25;;;20.90;98.10;;;;;;5011837;28;20532;-74
2022/08/26 00:40:36;;;;;;;5.35;3.90;;;20.80;98.10;;;;;;5008649;28;20045;-75
2022/08/26 00:43:03;;;;;;;5.85;4.45;;;20.70;98.20;;;;;;5010278;28;20100;-75
2022/08/26 00:46:06;;;;;;;6.50;4.15;;;20.80;98.30;;;;;;5006799;28;20038;-75
2022/08/26 00:48:34;;;;;;;4.28;3.88;;;20.70;98.40;;;;;;5005456;28;20038;-76
2022/08/26 00:51:08;;;;;;;6.13;3.85;;;20.70;98.50;;;;;;5008966;28;20030;-76
2022/08/26 00:53:38;;;;;;;6.38;4.22;;;20.60;98.60;;;;;;5004609;28;20034;-75
2022/08/26 00:56:03;;;;;;;5.20;4.50;;;20.60;98.80;;;;;;5009417;28;20125;-74
2022/08/26 00:58:32;;;;;;;4.38;3.97;;;20.60;98.90;;;;;;5002856;28;20117;-75
2022/08/26 01:00:58;;;;;;;7.95;4.78;;;20.50;99.30;;;;;;5010840;28;20022;-76
2022/08/26 01:03:27;;;;;;;6.82;4.30;;;20.50;99.10;;;;;;5007600;28;20372;-75
2022/08/26 01:05:55;;;;;;;6.65;4.25;;;20.50;99.30;;;;;;5004445;28;20113;-75
2022/08/26 01:08:22;;;;;;;7.72;4.65;;;20.50;99.40;;;;;;5007484;28;20030;-75
2022/08/26 01:10:48;;;;;;;7.68;4.35;;;20.40;99.50;;;;;;5006612;28;20030;-75
2022/08/26 01:13:14;;;;;;;5.68;4.75;;;20.40;99.60;;;;;;5007632;28;20454;-76
2022/08/26 01:15:46;;;;;;;6.25;4.38;;;20.30;99.70;;;;;;5010100;28;20047;-74
2022/08/26 01:18:13;;;;;;;6.85;4.70;;;20.30;99.90;;;;;;5011442;28;20516;-74
2022/08/26 01:21:02;;;;;;;6.82;4.53;;;20.30;99.90;;;;;;5011740;28;20142;-74
2022/08/26 01:23:34;;;;;;;5.05;4.35;;;20.20;99.90;;;;;;5010824;28;20113;-74
2022/08/26 01:26:07;;;;;;;6.30;5.15;;;20.20;99.90;;;;;;5021787;28;20034;-75
2022/08/26 01:28:34;;;;;;;6.63;4.90;;;20.20;99.90;;;;;;4998907;28;20026;-75
2022/08/26 01:31:02;;;;;;;5.88;4.82;;;20.10;99.90;;;;;;5007026;28;20026;-75
2022/08/26 01:33:36;;;;;;;6.28;4.80;;;20.10;99.90;;;;;;5011014;28;20022;-75
2022/08/26 01:36:02;;;;;;;7.95;4.72;;;20.10;99.90;;;;;;5008794;28;20034;-75
2022/08/26 01:38:28;;;;;;;5.70;4.70;;;20.00;99.90;;;;;;5002789;28;20113;-75
2022/08/26 01:40:53;;;;;;;5.15;4.35;;;20.00;99.90;;;;;;5008598;28;20172;-74
2022/08/26 01:43:22;;;;;;;7.20;4.57;;;20.00;99.90;;;;;;5010071;28;20041;-76
2022/08/26 01:45:53;;;;;;;6.30;4.22;;;20.00;99.90;;;;;;5011096;28;20053;-75
2022/08/26 01:48:23;;;;;;;8.15;5.03;;;20.00;99.90;;;;;;5008167;28;20026;-75
2022/08/26 01:50:50;;;;;;;7.13;5.38;;;20.00;99.90;;;;;;5011833;28;20113;-75
2022/08/26 01:53:18;;;;;;;8.23;5.18;;;20.00;99.90;;;;;;5007873;28;20037;-75
2022/08/26 01:55:49;;;;;;;10.00;5.10;;;20.00;99.90;;;;;;5013003;28;20501;-75
2022/08/26 01:58:33;;;;;;;8.77;5.55;;;20.00;99.90;;;;;;5011542;28;20023;-74
2022/08/26 02:00:59;;;;;;;7.82;6.03;;;19.90;99.90;;;;;;5009213;28;20113;-77
2022/08/26 02:03:26;;;;;;;8.80;5.57;;;19.90;99.90;;;;;;5009118;28;20180;-76
2022/08/26 02:06:04;;;;;;;7.57;6.25;;;19.90;99.90;;;;;;5012863;28;20104;-76
2022/08/26 02:08:50;;;;;;;8.45;6.78;;;19.80;99.90;;;;;;5011856;28;20169;-76
2022/08/26 02:11:16;;;;;;;9.30;5.82;;;19.80;99.90;;;;;;5012380;28;20030;-76
2022/08/26 02:13:53;;;;;;;7.65;6.00;;;19.80;99.90;;;;;;5011958;28;20036;-76
2022/08/26 02:16:22;;;;;;;7.13;4.95;;;19.80;99.90;;;;;;5011809;28;20494;-76
2022/08/26 02:18:49;;;;;;;7.32;5.43;;;19.70;99.90;;;;;;5012463;28;20568;-76
2022/08/26 02:21:15;;;;;;;6.55;5.28;;;19.70;99.90;;;;;;5004369;28;20025;-76
2022/08/26 02:23:41;;;;;;;6.55;4.90;;;19.70;99.90;;;;;;5008269;28;20443;-76
2022/08/26 02:26:17;;;;;;;8.93;5.38;;;19.60;99.90;;;;;;5010101;28;20033;-76
2022/08/26 02:28:49;;;;;;;8.68;5.43;;;19.60;99.90;;;;;;5009111;28;20034;-76
2022/08/26 02:31:14;;;;;;;7.10;5.00;;;19.60;99.90;;;;;;5013677;28;20026;-75
2022/08/26 02:33:40;;;;;;;7.05;4.93;;;19.60;99.90;;;;;;5006119;28;20502;-75
2022/08/26 02:36:06;;;;;;;7.22;5.18;;;19.50;99.90;;;;;;5011003;28;20026;-75
2022/08/26 02:38:33;;;;;;;12.30;5.72;;;19.50;99.90;;;;;;5013977;28;20470;-77
2022/08/26 02:40:59;;;;;;;7.07;5.28;;;19.50;99.90;;;;;;5011246;28;20030;-78
2022/08/26 02:43:24;;;;;;;7.93;5.32;;;19.40;99.90;;;;;;5012238;28;20030;-74
2022/08/26 02:45:50;;;;;;;9.10;5.45;;;19.40;99.90;;;;;;5012982;28;20041;-76
2022/08/26 02:48:18;;;;;;;5.97;5.15;;;19.40;99.90;;;;;;5011777;28;20101;-76
2022/08/26 02:50:44;;;;;;;5.97;4.78;;;19.40;99.90;;;;;;5006748;28;20042;-76
2022/08/26 02:53:11;;;;;;;9.15;5.05;;;19.40;99.90;;;;;;5014770;28;20069;-76
2022/08/26 02:55:39;;;;;;;7.45;4.88;;;19.40;99.90;;;;;;5013568;28;20018;-76
2022/08/26 02:58:05;;;;;;;7.28;4.95;;;19.40;99.90;;;;;;5004002;28;20446;-76
2022/08/26 03:00:31;;;;;;;7.75;4.40;;;19.40;99.90;;;;;;5012681;28;20057;-76
2022/08/26 03:02:58;;;;;;;5.53;4.85;;;19.40;99.90;;;;;;5006786;28;20022;-76
2022/08/26 03:05:24;;;;;;;6.32;4.57;;;19.40;99.90;;;;;;5012970;28;20703;-75
2022/08/26 03:07:51;;;;;;;6.00;4.97;;;19.40;99.90;;;;;;5011965;28;20533;-75
2022/08/26 03:10:18;;;;;;;5.43;4.65;;;19.40;99.90;;;;;;5020222;28;20030;-76
2022/08/26 03:12:44;;;;;;;5.15;4.50;;;19.40;99.90;;;;;;5011569;28;20061;-76
2022/08/26 03:15:13;;;;;;;6.20;4.57;;;19.40;99.90;;;;;;5008364;28;20041;-76
2022/08/26 03:17:39;;;;;;;5.95;4.68;;;19.40;99.90;;;;;;5009342;28;20030;-76
2022/08/26 03:20:08;;;;;;;8.82;4.75;;;19.30;99.90;;;;;;5009152;28;20026;-76
2022/08/26 03:22:35;;;;;;;8.52;5.60;;;19.30;99.90;;;;;;5006393;28;20041;-77
2022/08/26 03:25:03;;;;;;;7.60;5.40;;;19.30;99.90;;;;;;5010424;28;20104;-77
2022/08/26 03:27:29;;;;;;;7.78;5.32;;;19.30;99.90;;;;;;5009278;28;20084;-76
2022/08/26 03:32:39;;;;;;;6.65;5.55;;;19.20;99.90;;;;;;5009616;28;20080;-76
2022/08/26 03:35:05;;;;;;;8.45;6.05;;;19.20;99.90;;;;;;5007887;28;20022;-76
2022/08/26 03:37:31;;;;;;;9.48;6.20;;;19.20;99.90;;;;;;5006227;28;20514;-76
2022/08/26 03:39:56;;;;;;;7.10;5.47;;;19.10;99.90;;;;;;5008601;28;20026;-76
2022/08/26 03:42:22;;;;;;;7.22;5.38;;;19.10;99.90;;;;;;5007252;28;20495;-76
2022/08/26 03:44:48;;;;;;;7.55;5.45;;;19.00;99.90;;;;;;5006848;28;20026;-76
2022/08/26 03:47:14;;;;;;;5.95;4.78;;;19.00;99.90;;;;;;5009730;28;20026;-76
2022/08/26 03:49:40;;;;;;;5.70;5.00;;;19.00;99.90;;;;;;5026124;28;20390;-75
2022/08/26 03:52:06;;;;;;;6.93;4.90;;;19.00;99.90;;;;;;5011807;28;20022;-75
2022/08/26 03:54:32;;;;;;;5.30;4.45;;;19.00;99.90;;;;;;5008662;28;20029;-75
2022/08/26 03:56:58;;;;;;;7.75;5.15;;;19.00;99.90;;;;;;5007635;28;20032;-75
2022/08/26 03:59:24;;;;;;;8.25;5.00;;;18.90;99.90;;;;;;5007192;28;20038;-74
2022/08/26 04:01:50;;;;;;;7.32;5.07;;;18.90;99.90;;;;;;5005711;28;20433;-75
2022/08/26 04:04:16;;;;;;;6.55;5.22;;;18.90;99.90;;;;;;5002417;28;20069;-75
2022/08/26 04:06:42;;;;;;;6.82;5.13;;;18.80;99.90;;;;;;5008361;28;20057;-75
2022/08/26 04:09:12;;;;;;;5.13;4.60;;;18.80;99.90;;;;;;5008438;28;20053;-75
2022/08/26 04:11:38;;;;;;;5.57;5.00;;;18.80;99.90;;;;;;5011011;28;20045;-75
2022/08/26 04:14:16;;;;;;;7.40;4.90;;;18.80;99.90;;;;;;5006273;28;20037;-75
2022/08/26 04:16:42;;;;;;;7.55;4.90;;;18.80;99.90;;;;;;5006540;28;20022;-75
2022/08/26 04:19:09;;;;;;;5.68;4.85;;;18.80;99.90;;;;;;5010485;28;20026;-76
2022/08/26 04:21:39;;;;;;;6.03;5.25;;;18.80;99.90;;;;;;5009490;28;20873;-77
2022/08/26 04:24:06;;;;;;;6.07;4.70;;;18.80;99.90;;;;;;5007830;28;20056;-75
2022/08/26 04:26:36;;;;;;;5.95;5.05;;;18.80;99.90;;;;;;5007588;28;20138;-76
2022/08/26 04:29:08;;;;;;;6.60;5.38;;;18.80;99.90;;;;;;4998854;28;20053;-74
2022/08/26 04:31:35;;;;;;;9.23;5.47;;;18.80;99.90;;;;;;5000612;28;20104;-76
2022/08/26 04:34:02;;;;;;;9.75;5.47;;;18.80;99.90;;;;;;5008805;28;20026;-75
2022/08/26 04:36:27;;;;;;;7.07;5.47;;;18.80;99.90;;;;;;5001616;28;20052;-70
2022/08/26 04:38:53;;;;;;;7.20;5.95;;;18.80;99.90;;;;;;5005617;28;20109;-71
2022/08/26 04:41:19;;;;;;;5.88;4.75;;;18.70;99.90;;;;;;5011223;28;20030;-71
2022/08/26 04:43:46;;;;;;;6.22;5.47;;;18.80;99.90;;;;;;5009213;28;20057;-71
2022/08/26 04:46:14;;;;;;;7.40;4.95;;;18.80;99.90;;;;;;5009005;28;20029;-70
2022/08/26 04:48:40;;;;;;;6.90;5.53;;;18.80;99.90;;;;;;4997059;28;20030;-70
2022/08/26 04:51:06;;;;;;;7.93;6.05;;;18.80;99.90;;;;;;5009106;28;20101;-70
2022/08/26 04:53:32;;;;;;;8.40;6.43;;;18.80;99.90;;;;;;5010709;28;20022;-69
2022/08/26 04:55:58;;;;;;;6.15;5.50;;;18.80;99.90;;;;;;5011877;28;20040;-70
2022/08/26 04:58:24;;;;;;;8.70;5.85;;;18.90;99.90;;;;;;5007762;28;20394;-71
2022/08/26 05:00:52;;;;;;;7.97;5.55;;;18.80;99.90;;;;;;5009107;28;20479;-70
2022/08/26 05:03:18;;;;;;;9.23;5.63;;;18.80;99.90;;;;;;5001695;28;20518;-70
2022/08/26 05:05:46;;;;;;;7.53;5.18;;;18.80;99.90;;;;;;5009221;28;20526;-70
2022/08/26 05:08:14;;;;;;;7.22;5.05;;;18.80;99.90;;;;;;5007719;28;20382;-70
2022/08/26 05:10:45;;;;;;;8.55;5.18;;;18.80;99.90;;;;;;5005301;28;20026;-69
2022/08/26 05:13:16;;;;;;;8.23;5.53;;;18.80;99.90;;;;;;5007414;28;20172;-69
2022/08/26 05:15:43;;;;;;;6.53;5.60;;;18.70;99.90;;;;;;5006688;28;20037;-70
2022/08/26 05:18:09;;;;;;;13.43;5.50;;;18.70;99.90;;;;;;5008075;28;20061;-70
2022/08/26 05:20:45;;;;;;;8.02;5.13;;;18.80;99.90;;;;;;5000794;28;20041;-69
2022/08/26 05:23:11;;;;;;;7.47;5.03;;;18.70;99.90;;;;;;5023977;28;20475;-69
2022/08/26 05:25:43;;;;;;;8.13;4.93;;;18.80;99.90;;;;;;5007913;28;20041;-70
2022/08/26 05:28:11;;;;;;;6.05;4.85;;;18.90;99.90;;;;;;4993582;23;20042;-70
2022/08/26 05:30:37;;;;;;;6.45;4.85;;;18.90;99.90;;;;;;4987434;28;20023;-71
2022/08/26 05:33:03;;;;;;;9.05;5.38;;;18.90;99.90;;;;;;4991761;28;20165;-77
2022/08/26 05:35:30;;;;;;;10.52;5.82;;;18.90;99.90;;;;;;4986844;28;20026;-76
2022/08/26 05:38:09;;;;;;;8.90;5.32;;;18.90;99.90;;;;;;4992410;28;20084;-75
2022/08/26 05:40:48;;;;;;;8.52;5.18;;;18.90;99.90;;;;;;5003198;28;20033;-74
2022/08/26 05:43:14;;;;;;;11.05;5.25;;;19.00;99.90;;;;;;4998554;28;20034;-73
2022/08/26 05:45:43;;;;;;;7.43;5.22;;;19.00;99.90;;;;;;4999617;28;20039;-73
2022/08/26 05:48:09;;;;;;;9.63;5.28;;;19.00;99.90;;;;;;4984848;28;20117;-73
2022/08/26 05:50:40;;;;;;;9.48;5.55;;;19.00;99.90;;;;;;5000921;28;20122;-72
2022/08/26 05:53:07;;;;;;;6.65;5.38;;;19.00;99.90;;;;;;5000732;28;20125;-72
2022/08/26 05:55:33;;;;;;;8.65;5.45;;;19.00;99.90;;;;;;4989273;28;20116;-72
2022/08/26 05:57:59;;;;;;;9.10;4.85;;;19.00;99.90;;;;;;4986711;28;20033;-72
2022/08/26 06:00:26;;;;;;;10.85;5.72;;;19.00;99.90;;;;;;4985369;28;20034;-74
2022/08/26 06:02:52;;;;;;;5.85;4.97;;;19.00;99.90;;;;;;5005294;28;20026;-74
2022/08/26 06:05:18;;;;;;;5.60;4.63;;;19.00;99.90;;;;;;4989322;28;21952;-74
2022/08/26 06:10:29;;;;;;;9.02;4.97;;;19.00;99.90;;;;;;4988902;28;20165;-75
2022/08/26 06:12:56;;;;;;;8.32;5.35;;;19.10;99.90;;;;;;4993480;28;20018;-75
2022/08/26 06:15:21;;;;;;;8.50;6.35;;;19.10;99.90;;;;;;4992185;28;20081;-75
2022/08/26 06:17:47;;;;;;;10.20;6.38;;;19.10;99.90;;;;;;4993158;28;20487;-75
2022/08/26 06:20:13;;;;;;;14.65;7.53;;;19.20;99.90;;;;;;4995392;28;20030;-79
2022/08/26 06:25:37;;;;;;;;;;;19.30;99.90;;;;;;4988139;28;20073;-75
2022/08/26 06:28:04;;;;;;;12.27;6.68;;;19.40;99.90;;;;;;5007517;28;20008;-75
2022/08/26 06:30:31;;;;;;;9.60;6.13;;;19.50;99.90;;;;;;4993995;28;20030;-74
2022/08/26 06:32:57;;;;;;;8.85;5.78;;;19.50;99.90;;;;;;5008213;28;20557;-74
2022/08/26 06:35:23;;;;;;;8.38;6.20;;;19.60;99.90;;;;;;4990356;28;20035;-73
2022/08/26 06:37:48;;;;;;;11.38;7.00;;;19.70;99.90;;;;;;4992392;28;20407;-75
2022/08/26 06:40:14;;;;;;;9.10;6.30;;;19.80;99.90;;;;;;4995788;28;20030;-73
2022/08/26 06:42:40;;;;;;;8.93;6.70;;;19.80;99.90;;;;;;4990773;28;20049;-74
2022/08/26 06:45:06;;;;;;;9.43;6.68;;;19.90;99.90;;;;;;4991340;28;20034;-75
2022/08/26 06:47:32;;;;;;;9.23;6.70;;;19.90;99.90;;;;;;4993010;28;20022;-75
2022/08/26 06:49:57;;;;;;;10.75;6.68;;;20.00;99.90;;;;;;4989635;28;20034;-74
2022/08/26 06:52:23;;;;;;;8.98;6.75;;;20.10;99.90;;;;;;4990604;28;20037;-75
2022/08/26 06:54:49;;;;;;;9.38;5.90;;;20.10;99.90;;;;;;4989542;28;20483;-74
2022/08/26 06:57:15;;;;;;;8.98;6.40;;;20.20;99.90;;;;;;4982729;28;20033;-75
2022/08/26 06:59:40;;;;;;;7.85;5.60;;;20.20;99.90;;;;;;4992788;28;20066;-75
2022/08/26 07:02:06;;;;;;;8.63;5.15;;;20.30;99.90;;;;;;5005527;28;20031;-75
2022/08/26 07:04:32;;;;;;;6.80;5.40;;;20.40;99.90;;;;;;4989593;28;20034;-73
2022/08/26 07:06:59;;;;;;;6.30;4.85;;;20.50;99.90;;;;;;5000264;28;20027;-75
2022/08/26 07:09:29;;;;;;;8.60;4.95;;;20.50;99.90;;;;;;4992993;28;20022;-75
2022/08/26 07:11:55;;;;;;;5.43;4.50;;;20.60;99.90;;;;;;4993585;28;20029;-74
2022/08/26 07:14:21;;;;;;;5.55;4.88;;;20.60;99.90;;;;;;4990209;28;20026;-75
2022/08/26 07:16:48;;;;;;;7.43;4.95;;;20.70;99.90;;;;;;5006700;28;20049;-76
2022/08/26 07:19:16;;;;;;;6.68;4.65;;;20.80;99.90;;;;;;4992282;28;20029;-74
2022/08/26 07:21:41;;;;;;;7.50;4.70;;;20.80;99.90;;;;;;4989767;28;20027;-75
2022/08/26 07:24:09;;;;;;;8.15;5.00;;;20.80;99.90;;;;;;4991484;28;20164;-75
2022/08/26 07:26:34;;;;;;;6.43;4.03;;;20.90;99.90;;;;;;4994873;28;20027;-74
2022/08/26 07:29:00;;;;;;;10.43;5.07;;;21.00;99.90;;;;;;4990051;28;20022;-75
2022/08/26 07:31:30;;;;;;;9.23;5.03;;;21.10;99.90;;;;;;4992544;28;20472;-73
2022/08/26 07:33:56;;;;;;;5.75;4.55;;;21.10;99.90;;;;;;4991007;28;20061;-74
2022/08/26 07:36:23;;;;;;;6.32;4.70;;;21.20;99.90;;;;;;4985889;28;20034;-75
2022/08/26 07:38:50;;;;;;;5.07;4.45;;;21.30;99.90;;;;;;5008809;28;20520;-74
2022/08/26 07:41:19;;;;;;;7.35;4.32;;;21.30;99.90;;;;;;4992315;28;20026;-75
2022/08/26 07:43:45;;;;;;;6.80;5.22;;;21.30;99.90;;;;;;4985425;28;20507;-74
2022/08/26 07:46:17;;;;;;;6.18;5.10;;;21.30;99.90;;;;;;4989450;28;20034;-74
2022/08/26 07:48:43;;;;;;;6.78;5.28;;;21.30;99.90;;;;;;4997853;28;20026;-74
2022/08/26 07:51:09;;;;;;;10.00;5.00;;;21.30;99.90;;;;;;5003703;28;20022;-73
2022/08/26 07:53:35;;;;;;;7.97;5.10;;;21.30;99.90;;;;;;5005733;28;20027;-74
2022/08/26 07:56:00;;;;;;;9.85;4.95;;;21.40;99.90;;;;;;4987250;28;20034;-75
2022/08/26 07:58:27;;;;;;;5.65;5.07;;;21.50;99.90;;;;;;4984268;28;20065;-74
2022/08/26 08:00:53;;;;;;;7.35;4.18;;;21.50;99.90;;;;;;4997430;28;20034;-74
2022/08/26 08:03:19;;;;;;;8.10;4.05;;;21.60;99.90;;;;;;4991185;28;20037;-73
2022/08/26 08:05:45;;;;;;;7.43;4.53;;;21.70;99.90;;;;;;4991951;28;20030;-75
2022/08/26 08:08:10;;;;;;;4.65;4.15;;;21.70;99.90;;;;;;4986956;28;20387;-75
2022/08/26 08:10:37;;;;;;;4.78;4.10;;;21.70;99.90;;;;;;4982570;28;20157;-74
2022/08/26 08:13:05;;;;;;;7.95;4.53;;;21.80;99.90;;;;;;4998774;28;20541;-74
2022/08/26 08:15:33;;;;;;;7.15;4.05;;;21.80;99.90;;;;;;4991110;28;20100;-74
2022/08/26 08:17:58;;;;;;;4.68;4.00;;;21.90;99.90;;;;;;5006594;28;20403;-75
2022/08/26 08:20:25;;;;;;;7.18;3.85;;;21.90;99.90;;;;;;5006178;28;20037;-74
2022/08/26 08:22:52;;;;;;;7.00;4.20;;;22.00;99.90;;;;;;4987904;28;20027;-74
2022/08/26 08:25:18;;;;;;;4.35;3.95;;;22.10;99.90;;;;;;4990196;28;20027;-75
2022/08/26 08:27:44;;;;;;;6.65;4.00;;;22.20;99.90;;;;;;4991634;28;20631;-75
2022/08/26 08:30:12;;;;;;;5.93;3.72;;;22.30;99.90;;;;;;4990733;28;20114;-74
2022/08/26 08:32:38;;;;;;;4.45;3.95;;;22.50;99.90;;;;;;5005926;28;20042;-75
2022/08/26 08:35:07;;;;;;;5.50;4.50;;;22.60;99.90;;;;;;4989404;28;20030;-74
2022/08/26 08:37:33;;;;;;;6.22;3.80;;;22.70;99.90;;;;;;4988047;28;20039;-80
2022/08/26 08:39:59;;;;;;;4.70;3.78;;;22.80;99.90;;;;;;5020085;28;20073;-78
2022/08/26 08:42:44;;;;;;;7.60;4.18;;;22.90;99.90;;;;;;4996054;28;20030;-76
2022/08/26 08:45:37;;;;;;;5.28;4.07;;;23.00;99.90;;;;;;4998060;28;20026;-78
2022/08/26 08:48:20;;;;;;;7.38;4.20;;;23.10;99.90;;;;;;4997123;28;20026;-77
2022/08/26 08:50:52;;;;;;;6.80;3.88;;;23.20;99.90;;;;;;4995859;28;20026;-77
2022/08/26 08:53:29;;;;;;;5.70;4.05;;;23.20;99.90;;;;;;4997983;28;20072;-78
2022/08/26 08:56:06;;;;;;;5.70;3.67;;;23.20;99.60;;;;;;4997758;28;20026;-78
2022/08/26 08:58:57;;;;;;;5.65;4.38;;;23.30;99.50;;;;;;4998458;28;20030;-78
2022/08/26 09:01:35;;;;;;;12.07;4.10;;;23.40;99.30;;;;;;4998086;28;20105;-77
2022/08/26 09:04:09;;;;;;;8.10;4.60;;;23.40;99.20;;;;;;4996910;28;20026;-77
2022/08/26 09:06:34;;;;;;;7.50;4.40;;;23.40;99.20;;;;;;4996791;28;20026;-77
2022/08/26 09:09:02;;;;;;;11.02;4.85;;;23.50;99.00;;;;;;4997029;28;20547;-77
2022/08/26 09:11:28;;;;;;;7.68;4.15;;;23.60;98.40;;;;;;4997264;28;20019;-76
2022/08/26 09:13:55;;;;;;;5.45;4.05;;;23.70;98.40;;;;;;5012305;28;20022;-76
2022/08/26 09:16:33;;;;;;;5.75;3.83;;;23.70;98.30;;;;;;5012257;28;20054;-77
2022/08/26 09:19:06;;;;;;;6.35;4.43;;;23.80;98.10;;;;;;4996599;28;20049;-77
2022/08/26 09:21:32;;;;;;;4.22;3.83;;;23.90;98.00;;;;;;5013642;28;20031;-78
2022/08/26 09:23:58;;;;;;;6.03;3.90;;;23.90;97.70;;;;;;4998608;28;20483;-78
2022/08/26 09:26:39;;;;;;;7.25;4.05;;;24.00;97.10;;;;;;4997751;28;20046;-79
2022/08/26 09:29:12;;;;;;;5.30;3.78;;;24.10;96.70;;;;;;4998210;28;20014;-78
2022/08/26 09:31:39;;;;;;;5.32;3.97;;;24.10;96.60;;;;;;4997381;28;20446;-78
2022/08/26 09:34:17;;;;;;;6.35;3.75;;;24.20;96.40;;;;;;4998284;28;20041;-78
2022/08/26 09:36:42;;;;;;;4.03;3.58;;;24.30;96.20;;;;;;4997974;28;20064;-79
2022/08/26 09:39:24;;;;;;;5.40;3.95;;;24.50;95.90;;;;;;5013756;28;20022;-79
2022/08/26 09:42:08;;;;;;;6.78;4.00;;;24.50;95.60;;;;;;5013190;28;20018;-77
2022/08/26 09:44:53;;;;;;;4.72;3.70;;;24.60;95.00;;;;;;5014349;28;20037;-79
2022/08/26 09:47:24;;;;;;;5.78;3.67;;;24.70;94.70;;;;;;5000277;28;20097;-81
2022/08/26 09:49:58;;;;;;;9.38;3.60;;;24.80;94.40;;;;;;4999169;28;20036;-78
2022/08/26 09:52:26;;;;;;;6.90;4.10;;;24.80;94.40;;;;;;4998671;28;20105;-78
2022/08/26 09:55:04;;;;;;;4.68;3.40;;;24.90;94.40;;;;;;4997858;28;20079;-79
2022/08/26 09:57:42;;;;;;;6.75;4.38;;;25.00;94.10;;;;;;5013170;28;20022;-78
2022/08/26 10:00:30;;;;;;;5.88;3.63;;;25.10;94.00;;;;;;4999052;28;20031;-79
2022/08/26 10:03:05;;;;;;;6.18;3.95;;;25.10;93.90;;;;;;4996570;28;20043;-77
2022/08/26 10:05:39;;;;;;;6.05;3.55;;;25.20;93.70;;;;;;4997366;28;20037;-79
2022/08/26 10:08:38;;;;;;;7.57;4.10;;;25.30;93.40;;;;;;5011721;28;20122;-81
2022/08/26 10:11:15;;;;;;;8.00;4.28;;;25.40;93.20;;;;;;4998544;28;20031;-79
2022/08/26 10:13:47;;;;;;;4.80;3.92;;;25.50;93.10;;;;;;5001181;28;20022;-77
2022/08/26 10:16:26;;;;;;;7.30;4.30;;;25.60;93.10;;;;;;5000141;28;20058;-78
2022/08/26 10:18:59;;;;;;;8.40;4.95;;;25.70;93.00;;;;;;5001454;28;20018;-78
2022/08/26 10:21:35;;;;;;;6.88;4.00;;;25.70;93.00;;;;;;5001053;28;20030;-78
2022/08/26 10:24:02;;;;;;;8.30;4.35;;;25.80;92.90;;;;;;5001474;28;20027;-78
2022/08/26 10:27:04;;;;;;;8.32;4.65;;;25.90;92.80;;;;;;5015498;28;20088;-79
2022/08/26 10:29:49;;;;;;;5.97;4.10;;;26.00;91.70;;;;;;4999273;28;20025;-79
2022/08/26 10:32:31;;;;;;;7.07;4.30;;;26.00;91.20;;;;;;5013621;28;20606;-79
2022/08/26 10:34:57;;;;;;;6.43;4.15;;;26.10;91.30;;;;;;5014766;28;20022;-81
2022/08/26 10:37:31;;;;;;;12.35;4.78;;;26.10;91.50;;;;;;5016294;28;20528;-80
2022/08/26 10:40:14;;;;;;;5.10;3.90;;;26.10;91.60;;;;;;5001283;28;20027;-78
2022/08/26 10:43:02;;;;;;;5.93;3.80;;;26.20;91.80;;;;;;5015916;28;20201;-80
2022/08/26 10:45:36;;;;;;;12.75;4.75;;;26.30;91.80;;;;;;4998627;28;20039;-81
2022/08/26 10:48:08;;;;;;;7.18;4.75;;;26.40;91.80;;;;;;5017010;28;20022;-79
2022/08/26 10:50:40;;;;;;;7.37;5.20;;;26.50;91.30;;;;;;4997705;28;20041;-80
2022/08/26 10:53:27;;;;;;;9.68;4.40;;;26.60;91.00;;;;;;5000894;28;20014;-77
2022/08/26 10:55:59;;;;;;;6.97;4.47;;;26.60;90.90;;;;;;5000167;28;20030;-80
2022/08/26 10:58:54;;;;;;;7.80;4.68;;;26.70;90.80;;;;;;4999094;28;20037;-80
2022/08/26 11:01:44;;;;;;;7.10;3.90;;;26.70;90.90;;;;;;4999384;28;20026;-78
2022/08/26 11:04:15;;;;;;;9.63;4.45;;;26.80;91.20;;;;;;4999236;28;20114;-80
2022/08/26 11:06:44;;;;;;;12.40;4.88;;;26.90;90.50;;;;;;4997415;28;20026;-80
2022/08/26 11:09:30;;;;;;;7.97;4.57;;;26.90;90.30;;;;;;4999403;28;20097;-80
2022/08/26 11:11:57;;;;;;;5.18;4.43;;;26.90;90.20;;;;;;4997944;28;20030;-80
2022/08/26 11:14:22;;;;;;;9.73;5.18;;;26.90;90.20;;;;;;5001552;28;20026;-79
2022/08/26 11:16:53;;;;;;;8.38;4.68;;;27.00;90.00;;;;;;5015298;28;20552;-78
2022/08/26 11:19:36;;;;;;;8.70;4.43;;;27.00;87.50;;;;;;5016874;28;20041;-78
2022/08/26 11:22:08;;;;;;;9.00;4.13;;;27.00;86.60;;;;;;5001340;28;20022;-77
2022/08/26 11:24:54;;;;;;;6.45;4.53;;;27.10;84.90;;;;;;4981415;28;20027;-79
2022/08/26 11:30:12;;;;;;;9.73;4.65;;;27.10;85.10;;;;;;4992935;28;20057;-76
2022/08/26 11:32:38;;;;;;;7.57;4.43;;;27.20;84.70;;;;;;4994296;28;20025;-76
2022/08/26 11:35:12;;;;;;;8.32;4.38;;;27.20;85.70;;;;;;4994246;28;20454;-75
2022/08/26 11:37:54;;;;;;;7.03;4.45;;;27.20;86.20;;;;;;4985043;28;20477;-75
2022/08/26 11:40:26;;;;;;;9.57;4.82;;;27.20;85.70;;;;;;4992533;28;20154;-74
2022/08/26 11:43:11;;;;;;;7.72;4.85;;;27.20;85.80;;;;;;5003606;28;20040;-74
2022/08/26 11:46:07;;;;;;;7.28;5.03;;;27.20;85.20;;;;;;4993967;28;20114;-75
2022/08/26 11:48:40;;;;;;;12.18;5.03;;;27.30;85.10;;;;;;4979929;28;20149;-74
2022/08/26 11:51:07;;;;;;;10.07;5.32;;;27.30;84.80;;;;;;5004468;28;20034;-74
2022/08/26 11:53:37;;;;;;;5.05;4.13;;;27.40;83.30;;;;;;4990116;28;20030;-75
2022/08/26 11:56:08;;;;;;;9.00;5.18;;;27.40;82.40;;;;;;4994129;28;20084;-74
2022/08/26 11:58:34;;;;;;;7.35;4.00;;;27.50;81.30;;;;;;4995810;28;20058;-75
2022/08/26 12:01:05;;;;;;;11.48;4.07;;;27.50;80.50;;;;;;5004331;28;20129;-75
2022/08/26 12:03:34;;;;;;;8.77;3.92;;;27.50;79.00;;;;;;4976763;28;20525;-75
2022/08/26 12:06:01;;;;;;;6.78;4.22;;;27.60;78.60;;;;;;4988943;28;20495;-75
2022/08/26 12:08:31;;;;;;;4.80;3.50;;;27.60;78.60;;;;;;4996340;28;20405;-75
2022/08/26 12:11:12;;;;;;;7.72;4.13;;;27.60;77.80;;;;;;5004212;28;20034;-75
2022/08/26 12:13:38;;;;;;;8.60;4.30;;;27.70;77.70;;;;;;4994126;28;20046;-75
2022/08/26 12:16:05;;;;;;;12.45;4.25;;;27.70;77.20;;;;;;5000879;28;20482;-75
2022/08/26 12:18:33;;;;;;;5.88;3.40;;;27.80;75.70;;;;;;4994335;28;20036;-74
2022/08/26 12:21:11;;;;;;;9.30;3.90;;;27.90;73.20;;;;;;4994767;28;20110;-74
2022/08/26 12:23:42;;;;;;;6.28;3.65;;;28.00;72.50;;;;;;5004318;28;20034;-74
2022/08/26 12:26:18;;;;;;;6.20;3.50;;;28.10;71.70;;;;;;5014759;28;20026;-75
2022/08/26 12:28:47;;;;;;;6.95;3.65;;;28.10;71.70;;;;;;5015591;28;20026;-74
2022/08/26 12:31:25;;;;;;;11.57;4.60;;;28.20;71.50;;;;;;4989845;28;20080;-75
2022/08/26 12:33:51;;;;;;;7.60;3.80;;;28.20;72.00;;;;;;4992394;28;20037;-75
2022/08/26 12:36:24;;;;;;;5.43;3.97;;;28.30;68.60;;;;;;4995441;28;20048;-74
2022/08/26 12:38:50;;;;;;;6.57;4.10;;;28.30;68.80;;;;;;5014013;28;20037;-75
2022/08/26 12:41:38;;;;;;;7.00;4.15;;;28.40;69.60;;;;;;5013009;28;20305;-75
2022/08/26 12:44:04;;;;;;;5.70;3.28;;;28.50;70.40;;;;;;5014396;28;20026;-75
2022/08/26 12:46:29;;;;;;;11.93;3.83;;;28.50;70.10;;;;;;5014316;28;20052;-75
2022/08/26 12:48:59;;;;;;;11.20;4.40;;;28.50;69.90;;;;;;5014211;28;20014;-75
2022/08/26 12:51:28;;;;;;;6.85;3.85;;;28.60;69.80;;;;;;5014313;28;20421;-73
2022/08/26 12:53:54;;;;;;;7.25;4.00;;;28.70;69.60;;;;;;5014429;28;20022;-74
2022/08/26 12:56:26;;;;;;;7.63;3.42;;;28.70;68.80;;;;;;4996247;28;20031;-73
2022/08/26 12:59:16;;;;;;;7.40;3.60;;;28.80;68.50;;;;;;4996267;28;20027;-73
2022/08/26 13:01:43;;;;;;;6.68;3.63;;;28.80;68.00;;;;;;4976695;28;20068;-75
2022/08/26 13:04:38;;;;;;;8.52;3.83;;;28.80;68.10;;;;;;4998949;28;20041;-75
2022/08/26 13:07:26;;;;;;;7.53;3.25;;;28.80;67.10;;;;;;4990207;28;20565;-74
2022/08/26 13:09:57;;;;;;;6.05;3.80;;;28.90;66.70;;;;;;4976938;28;20026;-75
2022/08/26 13:12:29;;;;;;;8.63;4.60;;;28.90;66.70;;;;;;4992711;28;20511;-76